createdAt,value
2019-02-16T00:01:09.147Z,6.47
2019-02-16T00:03:39.513Z,6.60
2019-02-16T00:06:09.968Z,6.70
2019-02-16T00:08:40.210Z,7.00
2019-02-16T00:11:10.529Z,6.60
2019-02-16T00:13:40.808Z,7.17
2019-02-16T00:16:11.133Z,6.47
2019-02-16T00:18:41.688Z,6.50
2019-02-16T00:21:11.997Z,6.03
2019-02-16T00:23:42.350Z,7.33
2019-02-16T00:26:12.644Z,6.37
2019-02-16T00:28:42.881Z,6.57
2019-02-16T00:31:13.158Z,6.37
2019-02-16T00:33:43.442Z,6.90
2019-02-16T00:36:14.689Z,7.20
2019-02-16T00:38:44.901Z,6.73
2019-02-16T00:41:15.164Z,5.90
2019-02-16T00:43:45.418Z,7.00
2019-02-16T00:46:15.688Z,6.60
2019-02-16T00:48:45.899Z,6.70
2019-02-16T00:51:16.126Z,6.13
2019-02-16T00:53:46.371Z,6.63
2019-02-16T00:56:16.664Z,6.80
2019-02-16T00:58:46.890Z,5.93
2019-02-16T01:01:17.148Z,6.80
2019-02-16T01:03:47.351Z,6.13
2019-02-16T01:06:17.669Z,6.00
2019-02-16T01:08:48.067Z,6.10
2019-02-16T01:11:18.368Z,6.87
2019-02-16T01:13:48.638Z,6.80
2019-02-16T01:16:18.955Z,6.57
2019-02-16T01:18:49.226Z,7.10
2019-02-16T01:21:22.875Z,7.20
2019-02-16T01:23:51.401Z,6.73
2019-02-16T01:26:21.666Z,6.47
2019-02-16T01:28:52.204Z,6.37
2019-02-16T01:31:22.514Z,6.67
2019-02-16T01:33:53.154Z,6.20
2019-02-16T01:36:26.136Z,6.50
2019-02-16T01:38:56.701Z,6.97
2019-02-16T01:41:26.944Z,6.97
2019-02-16T01:43:57.601Z,6.80
2019-02-16T01:46:27.790Z,6.70
2019-02-16T01:48:58.173Z,6.80
2019-02-16T01:51:31.938Z,7.23
2019-02-16T01:54:00.364Z,7.07
2019-02-16T01:56:30.703Z,7.03
2019-02-16T01:59:01.016Z,7.20
2019-02-16T02:01:31.258Z,6.53
2019-02-16T02:04:01.612Z,6.87
2019-02-16T02:06:31.893Z,7.00
2019-02-16T02:09:02.203Z,7.20
2019-02-16T02:11:34.171Z,7.33
2019-02-16T02:14:04.466Z,7.33
2019-02-16T02:16:34.715Z,7.67
2019-02-16T02:19:05.003Z,7.03
2019-02-16T02:21:41.148Z,8.13
2019-02-16T02:24:07.350Z,7.70
2019-02-16T02:26:38.548Z,7.80
2019-02-16T02:29:08.951Z,7.53
2019-02-16T02:31:39.654Z,7.90
2019-02-16T02:34:09.921Z,7.07
2019-02-16T02:36:40.126Z,7.80
2019-02-16T02:39:10.366Z,7.17
2019-02-16T02:41:40.701Z,7.57
2019-02-16T02:44:10.991Z,7.67
2019-02-16T02:46:41.266Z,7.53
2019-02-16T02:49:11.493Z,7.13
2019-02-16T02:51:51.507Z,8.33
2019-02-16T02:54:13.670Z,7.77
2019-02-16T02:56:44.048Z,6.67
2019-02-16T02:59:14.312Z,7.57
2019-02-16T03:01:44.682Z,7.03
2019-02-16T03:04:16.554Z,7.63
2019-02-16T03:06:46.814Z,7.97
2019-02-16T03:09:18.677Z,8.30
2019-02-16T03:11:48.978Z,7.93
2019-02-16T03:14:20.361Z,7.63
2019-02-16T03:16:50.641Z,7.13
2019-02-16T03:19:20.893Z,7.67
2019-02-16T03:21:51.221Z,7.70
2019-02-16T03:24:21.474Z,7.50
2019-02-16T03:27:28.424Z,7.87
2019-02-16T03:31:03.058Z,7.93
2019-02-16T03:34:06.072Z,7.13
2019-02-16T03:37:16.212Z,7.73
2019-02-16T03:39:47.312Z,7.63
2019-02-16T03:42:17.669Z,8.07
2019-02-16T03:44:47.891Z,7.93
2019-02-16T03:47:18.214Z,8.50
2019-02-16T03:49:48.439Z,9.07
2019-02-16T03:52:18.891Z,8.43
2019-02-16T03:54:52.219Z,8.30
2019-02-16T03:57:22.458Z,8.33
2019-02-16T03:59:52.690Z,8.07
2019-02-16T04:02:22.960Z,9.57
2019-02-16T04:04:53.220Z,8.43
2019-02-16T04:07:23.475Z,8.33
2019-02-16T04:09:53.853Z,8.87
2019-02-16T04:12:24.101Z,8.80
2019-02-16T04:14:54.296Z,9.40
2019-02-16T04:17:24.646Z,8.37
2019-02-16T04:19:55.042Z,9.57
2019-02-16T04:22:25.268Z,8.90
2019-02-16T04:24:55.587Z,9.27
2019-02-16T04:27:25.742Z,8.90
2019-02-16T04:29:56.173Z,9.43
2019-02-16T04:32:26.410Z,9.00
2019-02-16T04:34:56.679Z,9.47
2019-02-16T04:37:26.929Z,9.70
2019-02-16T04:39:57.282Z,9.30
2019-02-16T04:42:27.578Z,8.50
2019-02-16T04:44:57.839Z,9.03
2019-02-16T04:47:28.157Z,8.33
2019-02-16T04:49:58.678Z,8.27
2019-02-16T04:52:34.651Z,9.17
2019-02-16T04:55:00.978Z,8.60
2019-02-16T04:57:31.263Z,9.43
2019-02-16T05:00:01.619Z,9.37
2019-02-16T05:02:31.918Z,8.63
2019-02-16T05:05:02.163Z,9.83
2019-02-16T05:07:32.555Z,9.03
2019-02-16T05:10:02.791Z,9.73
2019-02-16T05:12:33.047Z,9.37
2019-02-16T05:15:03.380Z,8.87
2019-02-16T05:17:34.699Z,9.43
2019-02-16T05:20:05.314Z,9.10
2019-02-16T05:22:44.209Z,9.77
2019-02-16T05:25:07.739Z,9.13
2019-02-16T05:27:38.032Z,9.97
2019-02-16T05:30:09.425Z,9.67
2019-02-16T05:32:40.083Z,9.17
2019-02-16T05:35:10.306Z,10.00
2019-02-16T05:37:40.601Z,8.87
2019-02-16T05:40:10.834Z,9.57
2019-02-16T05:42:41.355Z,9.57
2019-02-16T05:45:13.607Z,9.60
2019-02-16T05:47:43.920Z,9.23
2019-02-16T05:50:14.506Z,9.30
2019-02-16T05:52:53.777Z,9.27
2019-02-16T05:55:16.785Z,10.03
2019-02-16T05:57:47.220Z,10.30
2019-02-16T06:00:19.052Z,9.87
2019-02-16T06:02:49.280Z,9.20
2019-02-16T06:05:19.711Z,9.73
2019-02-16T06:07:50.121Z,9.53
2019-02-16T06:10:20.358Z,9.63
2019-02-16T06:12:50.631Z,9.67
2019-02-16T06:15:20.909Z,9.70
2019-02-16T06:17:51.203Z,9.17
2019-02-16T06:20:21.421Z,9.60
2019-02-16T06:22:51.684Z,9.83
2019-02-16T06:25:21.946Z,10.23
2019-02-16T06:27:52.263Z,10.47
2019-02-16T06:30:22.495Z,9.90
2019-02-16T06:32:53.127Z,10.00
2019-02-16T06:35:28.932Z,9.47
2019-02-16T06:38:00.225Z,9.83
2019-02-16T06:40:30.569Z,9.30
2019-02-16T06:43:00.895Z,9.33
2019-02-16T06:45:31.155Z,9.90
2019-02-16T06:48:02.336Z,9.77
2019-02-16T06:50:37.035Z,9.83
2019-02-16T06:53:12.871Z,9.57
2019-02-16T06:55:51.675Z,9.67
2019-02-16T06:58:21.940Z,9.83
2019-02-16T07:00:52.155Z,10.50
2019-02-16T07:03:22.496Z,11.03
2019-02-16T07:05:53.182Z,9.97
2019-02-16T07:08:23.608Z,9.83
2019-02-16T07:10:53.843Z,9.93
2019-02-16T07:13:24.246Z,10.43
2019-02-16T07:16:22.587Z,9.97
2019-02-16T07:18:57.997Z,9.30
2019-02-16T07:21:28.224Z,9.43
2019-02-16T07:23:58.498Z,9.53
2019-02-16T07:26:30.719Z,8.43
2019-02-16T07:29:00.955Z,8.83
2019-02-16T07:31:32.803Z,9.23
2019-02-16T07:34:03.032Z,9.40
2019-02-16T07:36:36.367Z,9.07
2019-02-16T07:39:07.894Z,9.13
2019-02-16T07:41:38.161Z,9.97
2019-02-16T07:44:45.546Z,9.60
2019-02-16T07:47:28.366Z,9.97
2019-02-16T07:50:35.780Z,9.20
2019-02-16T07:53:17.919Z,9.10
2019-02-16T07:56:10.418Z,9.60
2019-02-16T07:58:49.451Z,9.23
2019-02-16T08:01:34.113Z,9.90
2019-02-16T08:04:32.489Z,9.37
2019-02-16T08:07:24.866Z,9.70
2019-02-16T08:10:01.956Z,8.80
2019-02-16T08:12:44.795Z,9.37
2019-02-16T08:15:34.219Z,10.37
2019-02-16T08:18:26.176Z,9.70
2019-02-16T08:21:03.983Z,9.97
2019-02-16T08:23:41.577Z,10.47
2019-02-16T08:26:19.721Z,9.90
2019-02-16T08:29:05.902Z,10.40
2019-02-16T08:31:41.686Z,9.73
2019-02-16T08:34:30.999Z,8.83
2019-02-16T08:37:17.241Z,8.63
2019-02-16T08:40:13.221Z,8.57
2019-02-16T08:42:54.999Z,8.47
2019-02-16T08:45:44.178Z,8.07
2019-02-16T08:48:31.835Z,7.53
2019-02-16T08:51:19.432Z,8.63
2019-02-16T08:54:14.455Z,7.53
2019-02-16T08:57:21.521Z,7.17
2019-02-16T09:00:04.415Z,7.07
2019-02-16T09:02:41.359Z,8.17
2019-02-16T09:05:20.078Z,7.17
2019-02-16T09:07:56.640Z,8.40
2019-02-16T09:10:51.667Z,8.33
2019-02-16T09:13:42.899Z,8.20
2019-02-16T09:16:30.939Z,8.40
2019-02-16T09:19:18.590Z,8.77
2019-02-16T09:22:09.787Z,8.87
2019-02-16T09:24:52.444Z,8.27
2019-02-16T09:27:50.773Z,8.53
2019-02-16T09:30:39.996Z,8.40
2019-02-16T09:33:38.107Z,8.37
2019-02-16T09:36:27.373Z,8.63
2019-02-16T09:39:12.604Z,8.60
2019-02-16T09:41:49.194Z,8.57
2019-02-16T09:44:25.067Z,8.20
2019-02-16T09:47:07.728Z,8.60
2019-02-16T09:49:57.006Z,8.00
2019-02-16T09:52:44.627Z,8.53
2019-02-16T09:55:37.597Z,8.10
2019-02-16T09:58:44.793Z,7.90
2019-02-16T10:01:42.974Z,8.37
2019-02-16T10:04:38.226Z,7.93
2019-02-16T10:07:26.242Z,7.97
2019-02-16T10:10:04.599Z,8.00
2019-02-16T10:12:46.899Z,8.40
2019-02-16T10:15:34.718Z,7.63
2019-02-16T10:18:32.955Z,7.83
2019-02-16T10:21:22.471Z,7.80
2019-02-16T10:24:17.545Z,7.90
2019-02-16T10:27:02.640Z,7.67
2019-02-16T10:29:51.315Z,7.60
2019-02-16T10:32:53.070Z,8.20
2019-02-16T10:35:42.242Z,8.07
2019-02-16T10:38:34.852Z,8.73
2019-02-16T10:41:29.986Z,7.67
2019-02-16T10:44:22.250Z,8.07
2019-02-16T10:47:12.523Z,8.47
2019-02-16T10:49:56.613Z,8.57
2019-02-16T10:52:38.928Z,8.20
2019-02-16T10:55:41.001Z,8.60
2019-02-16T10:58:39.079Z,8.47
2019-02-16T11:01:34.765Z,8.50
2019-02-16T11:04:14.614Z,8.80
2019-02-16T11:07:12.749Z,8.10
2019-02-16T11:09:48.545Z,8.60
2019-02-16T11:12:43.937Z,9.00
2019-02-16T11:15:52.040Z,9.10
2019-02-16T11:18:44.355Z,9.17
2019-02-16T11:21:33.761Z,8.63
2019-02-16T11:24:09.741Z,8.53
2019-02-16T11:27:02.028Z,9.43
2019-02-16T11:29:50.079Z,8.63
2019-02-16T11:32:29.418Z,8.63
2019-02-16T11:35:29.110Z,8.27
2019-02-16T11:38:17.066Z,8.77
2019-02-16T11:40:59.697Z,8.40
2019-02-16T11:43:38.445Z,8.63
2019-02-16T11:46:26.443Z,8.70
2019-02-16T11:49:08.347Z,8.17
2019-02-16T11:52:18.864Z,8.70
2019-02-16T11:55:10.975Z,9.20
2019-02-16T11:57:58.563Z,9.17
2019-02-16T12:00:36.152Z,8.80
2019-02-16T12:03:28.540Z,9.33
2019-02-16T12:06:35.846Z,8.87
2019-02-16T12:09:36.162Z,9.57
2019-02-16T12:12:33.694Z,9.03
2019-02-16T12:15:19.537Z,9.20
2019-02-16T12:18:07.476Z,8.93
2019-02-16T12:21:00.958Z,9.17
2019-02-16T12:23:55.959Z,8.60
2019-02-16T12:27:03.440Z,8.80
2019-02-16T12:29:42.190Z,8.63
2019-02-16T12:32:18.268Z,9.40
2019-02-16T12:35:22.947Z,9.23
2019-02-16T12:37:59.607Z,9.30
2019-02-16T12:40:36.249Z,9.07
2019-02-16T12:43:25.525Z,9.70
2019-02-16T12:46:14.774Z,9.47
2019-02-16T12:49:03.056Z,9.03
2019-02-16T12:51:40.066Z,9.90
2019-02-16T12:54:32.360Z,8.90
2019-02-16T12:57:17.795Z,8.93
2019-02-16T13:00:10.241Z,9.83
2019-02-16T13:03:02.578Z,9.70
2019-02-16T13:06:07.932Z,9.63
2019-02-16T13:08:48.870Z,9.23
2019-02-16T13:11:39.376Z,8.87
2019-02-16T13:14:22.225Z,8.43
2019-02-16T13:17:20.735Z,8.17
2019-02-16T13:20:08.807Z,8.83
2019-02-16T13:23:03.524Z,8.63
2019-02-16T13:25:52.757Z,8.30
2019-02-16T13:28:30.957Z,8.97
2019-02-16T13:31:29.075Z,9.03
2019-02-16T13:34:24.624Z,8.83
2019-02-16T13:37:19.285Z,9.00
2019-02-16T13:40:08.741Z,9.13
2019-02-16T13:42:44.742Z,8.43
2019-02-16T13:45:34.042Z,8.77
2019-02-16T13:48:18.277Z,9.00
2019-02-16T13:50:58.094Z,8.20
2019-02-16T13:53:35.995Z,9.03
2019-02-16T13:56:23.647Z,7.83
2019-02-16T13:59:11.267Z,8.57
2019-02-16T14:01:52.758Z,9.20
2019-02-16T14:04:47.954Z,9.17
2019-02-16T14:07:40.111Z,9.30
2019-02-16T14:10:20.328Z,8.30
2019-02-16T14:13:02.981Z,9.27
2019-02-16T14:16:00.371Z,8.93
2019-02-16T14:18:32.217Z,8.80
2019-02-16T14:21:02.523Z,9.87
2019-02-16T14:23:32.766Z,8.67
2019-02-16T14:26:03.291Z,8.97
2019-02-16T14:28:33.667Z,9.00
2019-02-16T14:31:03.960Z,9.00
2019-02-16T14:33:34.182Z,9.50
2019-02-16T14:36:04.487Z,9.37
2019-02-16T14:38:42.804Z,9.17
2019-02-16T14:41:13.220Z,9.00
2019-02-16T14:43:43.528Z,8.83
2019-02-16T14:46:13.847Z,8.20
2019-02-16T14:48:44.075Z,9.17
2019-02-16T14:51:15.546Z,7.87
2019-02-16T14:53:47.156Z,9.67
2019-02-16T14:56:19.080Z,8.63
2019-02-16T14:59:09.074Z,8.50
2019-02-16T15:01:39.442Z,8.60
2019-02-16T15:04:09.800Z,8.67
2019-02-16T15:06:40.166Z,8.07
2019-02-16T15:09:11.116Z,8.93
2019-02-16T15:11:41.473Z,9.03
2019-02-16T15:14:11.818Z,8.90
2019-02-16T15:16:42.430Z,8.60
2019-02-16T15:19:12.822Z,8.13
2019-02-16T15:21:43.246Z,8.33
2019-02-16T15:24:13.647Z,9.07
2019-02-16T15:26:43.906Z,8.13
2019-02-16T15:29:14.257Z,8.87
2019-02-16T15:31:44.644Z,8.90
2019-02-16T15:34:14.986Z,10.17
2019-02-16T15:36:45.252Z,8.57
2019-02-16T15:39:15.587Z,8.97
2019-02-16T15:41:45.950Z,8.90
2019-02-16T15:44:16.316Z,8.97
2019-02-16T15:46:46.678Z,8.93
2019-02-16T15:49:18.171Z,9.60
2019-02-16T15:51:48.418Z,9.27
2019-02-16T15:54:19.666Z,9.97
2019-02-16T15:56:51.037Z,8.87
2019-02-16T15:59:21.476Z,8.27
2019-02-16T16:01:51.783Z,9.50
2019-02-16T16:04:22.382Z,8.87
2019-02-16T16:06:52.762Z,9.10
2019-02-16T16:09:50.869Z,8.90
2019-02-16T16:12:38.759Z,8.77
2019-02-16T16:15:22.761Z,8.83
2019-02-16T16:18:24.051Z,8.83
2019-02-16T16:21:12.081Z,8.20
2019-02-16T16:24:02.681Z,8.33
2019-02-16T16:26:57.778Z,8.87
2019-02-16T16:29:42.219Z,8.20
2019-02-16T16:32:23.652Z,9.23
2019-02-16T16:35:11.633Z,9.90
2019-02-16T16:37:59.450Z,10.13
2019-02-16T16:40:48.768Z,10.50
2019-02-16T16:43:36.547Z,9.90
2019-02-16T16:46:24.861Z,10.47
2019-02-16T16:49:14.111Z,10.60
2019-02-16T16:52:04.957Z,10.37
2019-02-16T16:55:00.300Z,9.53
2019-02-16T16:57:55.707Z,10.03
2019-02-16T17:00:43.392Z,10.10
2019-02-16T17:03:32.722Z,10.43
2019-02-16T17:06:24.677Z,10.33
2019-02-16T17:09:19.959Z,9.40
2019-02-16T17:12:12.430Z,9.63
2019-02-16T17:14:59.956Z,10.90
2019-02-16T17:17:55.032Z,9.77
2019-02-16T17:20:42.984Z,9.97
2019-02-16T17:23:22.236Z,10.27
2019-02-16T17:26:03.043Z,11.03
2019-02-16T17:28:52.369Z,10.13
2019-02-16T17:31:41.665Z,9.97
2019-02-16T17:34:48.853Z,9.97
2019-02-16T17:37:50.345Z,10.60
2019-02-16T17:40:38.128Z,9.63
2019-02-16T17:43:24.642Z,10.23
2019-02-16T17:46:09.947Z,11.03
2019-02-16T17:48:59.253Z,10.83
2019-02-16T17:51:48.473Z,12.33
2019-02-16T17:54:39.119Z,11.67
2019-02-16T17:57:26.827Z,12.03
2019-02-16T18:00:25.254Z,13.00
2019-02-16T18:03:11.882Z,12.27
2019-02-16T18:06:06.840Z,12.30
2019-02-16T18:08:58.365Z,12.23
2019-02-16T18:11:45.799Z,13.37
2019-02-16T18:14:33.611Z,13.07
2019-02-16T18:17:27.636Z,13.13
2019-02-16T18:20:25.817Z,13.27
2019-02-16T18:23:04.764Z,12.20
2019-02-16T18:25:54.160Z,12.67
2019-02-16T18:28:34.345Z,12.93
2019-02-16T18:31:23.372Z,12.40
2019-02-16T18:34:08.930Z,13.23
2019-02-16T18:37:10.306Z,12.30
2019-02-16T18:40:11.826Z,11.87
2019-02-16T18:42:59.692Z,12.47
2019-02-16T18:45:40.105Z,12.20
2019-02-16T18:48:24.075Z,12.17
2019-02-16T18:51:18.597Z,12.60
2019-02-16T18:54:16.944Z,12.17
2019-02-16T18:57:09.238Z,11.37
2019-02-16T18:59:47.102Z,11.17
2019-02-16T19:02:28.713Z,11.80
2019-02-16T19:05:18.424Z,12.70
2019-02-16T19:07:59.988Z,11.67
2019-02-16T19:10:49.212Z,12.07
2019-02-16T19:13:27.261Z,11.23
2019-02-16T19:16:16.540Z,11.60
2019-02-16T19:19:09.570Z,11.60
2019-02-16T19:21:50.322Z,10.87
2019-02-16T19:24:36.750Z,11.93
2019-02-16T19:27:24.752Z,12.30
2019-02-16T19:30:22.825Z,12.77
2019-02-16T19:33:11.628Z,12.07
2019-02-16T19:36:03.791Z,12.70
2019-02-16T19:38:58.909Z,13.13
2019-02-16T19:42:00.162Z,12.43
2019-02-16T19:44:40.691Z,12.70
2019-02-16T19:47:29.007Z,14.77
2019-02-16T19:50:18.186Z,13.53
2019-02-16T19:53:02.831Z,14.17
2019-02-16T19:55:57.882Z,13.87
2019-02-16T19:58:45.261Z,13.73
2019-02-16T20:01:37.564Z,14.07
2019-02-16T20:04:16.445Z,14.43
2019-02-16T20:07:14.770Z,14.93
2019-02-16T20:10:09.946Z,14.73
2019-02-16T20:13:05.230Z,14.00
2019-02-16T20:16:03.798Z,14.07
2019-02-16T20:18:53.869Z,15.83
2019-02-16T20:21:38.095Z,16.03
2019-02-16T20:24:27.957Z,15.70
2019-02-16T20:27:36.998Z,14.93
2019-02-16T20:30:21.088Z,14.67
2019-02-16T20:33:08.738Z,14.77
2019-02-16T20:36:03.764Z,14.73
2019-02-16T20:38:47.820Z,14.73
2019-02-16T20:41:43.362Z,15.07
2019-02-16T20:44:35.657Z,16.47
2019-02-16T20:47:13.319Z,14.43
2019-02-16T20:50:05.318Z,16.37
2019-02-16T20:53:09.430Z,16.23
2019-02-16T20:56:16.891Z,15.47
2019-02-16T20:59:04.785Z,15.10
2019-02-16T21:01:53.196Z,15.70
2019-02-16T21:04:40.844Z,15.00
2019-02-16T21:07:27.853Z,15.03
2019-02-16T21:10:15.605Z,14.93
2019-02-16T21:13:10.924Z,16.13
2019-02-16T21:16:18.692Z,15.33
2019-02-16T21:19:02.855Z,16.20
2019-02-16T21:21:45.765Z,17.07
2019-02-16T21:24:35.168Z,16.47
2019-02-16T21:27:22.248Z,16.03
2019-02-16T21:30:05.100Z,15.33
2019-02-16T21:32:48.954Z,15.43
2019-02-16T21:35:35.073Z,16.50
2019-02-16T21:38:27.241Z,14.70
2019-02-16T21:41:06.330Z,15.53
2019-02-16T21:43:55.547Z,16.87
2019-02-16T21:46:35.587Z,16.53
2019-02-16T21:49:27.862Z,16.03
2019-02-16T21:52:15.444Z,15.90
2019-02-16T21:54:57.993Z,15.87
2019-02-16T21:57:38.352Z,17.13
2019-02-16T22:00:26.847Z,16.40
2019-02-16T22:03:14.741Z,16.73
2019-02-16T22:05:53.240Z,17.03
2019-02-16T22:08:55.110Z,16.63
2019-02-16T22:11:32.026Z,16.20
2019-02-16T22:14:02.382Z,17.60
2019-02-16T22:16:32.839Z,17.67
2019-02-16T22:19:03.435Z,17.10
2019-02-16T22:21:33.763Z,17.90
2019-02-16T22:24:04.830Z,17.07
2019-02-16T22:26:35.137Z,16.60
2019-02-16T22:29:05.464Z,16.03
2019-02-16T22:31:35.747Z,15.97
2019-02-16T22:34:06.068Z,16.50
2019-02-16T22:36:36.451Z,16.13
2019-02-16T22:39:08.945Z,16.37
2019-02-16T22:41:39.250Z,16.20
2019-02-16T22:44:09.755Z,16.87
2019-02-16T22:46:40.012Z,16.23
2019-02-16T22:49:10.694Z,16.30
2019-02-16T22:51:40.956Z,16.53
2019-02-16T22:54:11.241Z,17.00
2019-02-16T22:56:41.514Z,16.17
2019-02-16T22:59:11.783Z,16.93
2019-02-16T23:01:44.008Z,17.00
2019-02-16T23:04:14.252Z,16.03
2019-02-16T23:06:44.721Z,16.83
2019-02-16T23:09:30.160Z,17.47
2019-02-16T23:12:00.468Z,17.20
2019-02-16T23:14:30.928Z,18.27
2019-02-16T23:17:01.218Z,16.87
2019-02-16T23:19:32.490Z,16.83
2019-02-16T23:22:02.823Z,16.73
2019-02-16T23:24:33.119Z,16.37
2019-02-16T23:27:03.597Z,16.20
2019-02-16T23:29:33.864Z,16.33
2019-02-16T23:32:05.722Z,16.57
2019-02-16T23:34:36.093Z,16.80
2019-02-16T23:37:06.398Z,15.47
2019-02-16T23:39:38.270Z,15.87
2019-02-16T23:42:08.550Z,16.03
2019-02-16T23:44:38.940Z,17.53
2019-02-16T23:47:09.255Z,17.27
2019-02-16T23:49:39.491Z,17.00
2019-02-16T23:52:09.725Z,16.97
2019-02-16T23:54:40.031Z,17.03
2019-02-16T23:57:10.565Z,17.30
2019-02-16T23:59:41.032Z,18.13
